Pagina principale
METAR-TAF:

METAR-TAF

Aeroporti :

Aeroporto di Vladikavkaz

Vladikavkaz, Russia

latitudine: 43-12-18N, longitudine: 044-36-24E, altezza: 510 m

Osservazione

Il bollettino è stato emesso 11 minuti fa, alle 19:30 UTC
Vento 6 kt da sud
Temperature 21°C
Umidità 88%
Pressione 1019 hPa
Visibilità 10 km o più

METAR: URMO 101930Z AUTO 17003MPS 9999 // ///066/// 21/19 Q1019 RMK QFE720/0960

Ora: 22:41 (19:41 UTC)

Previsione

Il bollettino è stato emesso 5 ore e 41 minuti fa, alle 14:00 UTC
Previsione valida dal 10 alle 15 UTC al 10 alle 24 UTC
Vento 6 kt da nord-ovest con raffiche fino a 16 kt
Visibilità 10 km o più
Nuvoloso ad un'altezza di 3000 ft
Temporaneamente
dal 10 alle 15 UTC al 10 alle 21 UTC
Nuvoloso ad un'altezza di 3000 ft, Cumulonembo.
rovesci di pioggia

TAF: URMO 101400Z 1015/1024 32003G08MPS 9999 BKN030 TEMPO 1015/1021 -SHRA BKN030CB

Osservazioni e previsioni meteorologiche di più di 4000 aeroporti (messaggi METAR e TAF).

Le stazioni disponibili sono rappresentate dai dischi gialli e rossi sulla carta.

Puntare il mouse per vedere il nome della stazione.

Clicca sopra per visualizzare le osservazioni e previsioni meteorologiche.

Per cambiare la mappa : fare clic sui pulsanti verdi con una croce nera per ingrandire, il pulsante verde con un trattino per diminuire, o sulla freccia verde per le mappe adiacenti.


METAR-TAF: